Bullhead City, AZ

6:58 AM MST on January 21, 2018 (GMT -0700)
Laughlin-Bullhead International

Weather History for KIFP - April, 2013

Change the Weather History Date:

Monday, April 22, 2013

  Actual Average Record
Temperature  
Mean Temperature 80 °F -  
Max Temperature 95 °F 83 °F 104 °F (2012)
Min Temperature 64 °F 62 °F 48 °F (2001)
Cooling Degree Days 14    
Growing Degree Days 30 (Base 50)    
Moisture  
Dew Point 22 °F    
Average Humidity 12    
Maximum Humidity 24    
Minimum Humidity 6    
Precipitation  
Precipitation 0.00 in - - ()
Sea Level Pressure  
Sea Level Pressure 29.78 in    
Wind  
Wind Speed 6 mph (South)    
Max Wind Speed 20 mph    
Max Gust Speed 26 mph    
Visibility 10 miles    
Events      
Averages and records for this station are not official NWS values.
T = Trace of Precipitation, MM = Missing Value Source: NWS Daily Summary

Daily Weather History Graph

Daily Weather History Graph

Search for Another Location

Airport or City:

Trip Planner

Search our weather history database for the weather conditions in past years. The results will help you decide how hot, cold, wet, or windy it might be!

Date:

Astronomy

Apr. 22, 2013 Rise Set
Actual Time 5:56 AM MST 7:16 PM MST
Civil Twilight 5:30 AM MST 7:43 PM MST
Nautical Twilight 4:58 AM MST 8:15 PM MST
Astronomical Twilight 4:25 AM MST 8:48 PM MST
Moon 4:16 PM MST (4/22) 3:46 AM MST (4/22)
Length of Visible Light 14h 13m
Length of Day
13h 19m
Waxing Gibbous, 88% of the Moon is Illuminated
Apr 22
Waxing Gibbous
Apr 25
Full
May 2
Last Quarter
May 9
New
May 17
First Quarter

Hourly Weather History & Observations

Time (MST) Temp. Dew Point Humidity Pressure Visibility Wind Dir Wind Speed Gust Speed Precip Events Conditions
12:15 AM 71.6 °F 19.4 °F 14% 29.86 in 10.0 mi Calm Calm - N/A   Clear
12:35 AM 71.6 °F 21.2 °F 15% 29.86 in 10.0 mi SE 4.6 mph - N/A   Clear
12:55 AM 71.6 °F 19.4 °F 14% 29.87 in 10.0 mi Calm Calm - N/A   Clear
1:15 AM 71.6 °F 21.2 °F 15% 29.87 in 10.0 mi SE 8.1 mph - N/A   Clear
1:35 AM 71.6 °F 21.2 °F 15% 29.86 in 10.0 mi ESE 5.8 mph - N/A   Clear
1:55 AM 73.4 °F 21.2 °F 14% 29.86 in 10.0 mi SSE 3.5 mph - N/A   Clear
2:15 AM 73.4 °F 23.0 °F 15% 29.85 in 10.0 mi Calm Calm - N/A   Clear
2:35 AM 71.6 °F 23.0 °F 16% 29.85 in 10.0 mi Calm Calm - N/A   Clear
2:55 AM 71.6 °F 23.0 °F 16% 29.85 in 10.0 mi North 3.5 mph - N/A   Clear
3:15 AM 71.6 °F 21.2 °F 15% 29.85 in 10.0 mi Calm Calm - N/A   Clear
3:35 AM 71.6 °F 23.0 °F 16% 29.85 in 10.0 mi Calm Calm - N/A   Clear
3:55 AM 68.0 °F 23.0 °F 18% 29.85 in 10.0 mi ESE 5.8 mph - N/A   Clear
4:15 AM 66.2 °F 23.0 °F 19% 29.85 in 10.0 mi SE 5.8 mph - N/A   Clear
4:35 AM 66.2 °F 23.0 °F 19% 29.84 in 10.0 mi SSE 5.8 mph - N/A   Clear
4:55 AM 66.2 °F 23.0 °F 19% 29.84 in 10.0 mi SE 6.9 mph - N/A   Clear
5:15 AM 66.2 °F 23.0 °F 19% 29.84 in 10.0 mi ESE 4.6 mph - N/A   Clear
5:35 AM 66.2 °F 23.0 °F 19% 29.85 in 10.0 mi ESE 3.5 mph - N/A   Clear
5:55 AM 66.2 °F 23.0 °F 19% 29.85 in 10.0 mi SSE 3.5 mph - N/A   Clear
6:15 AM 64.4 °F 23.0 °F 21% 29.86 in 10.0 mi SE 4.6 mph - N/A   Clear
6:35 AM 66.2 °F 23.0 °F 19% 29.87 in 10.0 mi SE 4.6 mph - N/A   Clear
6:55 AM 68.0 °F 23.0 °F 18% 29.88 in 10.0 mi SE 5.8 mph - N/A   Clear
7:15 AM 64.4 °F 26.6 °F 24% 29.88 in 10.0 mi Calm Calm - N/A   Clear
7:35 AM 69.8 °F 24.8 °F 18% 29.89 in 10.0 mi SE 3.5 mph - N/A   Clear
7:55 AM 71.6 °F 23.0 °F 16% 29.89 in 10.0 mi South 3.5 mph - N/A   Clear
8:15 AM 71.6 °F 23.0 °F 16% 29.90 in 10.0 mi Calm Calm - N/A   Clear
8:35 AM 73.4 °F 23.0 °F 15% 29.90 in 10.0 mi South 4.6 mph - N/A   Clear
8:55 AM 75.2 °F 21.2 °F 13% 29.90 in 10.0 mi SW 4.6 mph - N/A   Clear
9:15 AM 75.2 °F 21.2 °F 13% 29.89 in 10.0 mi SW 4.6 mph - N/A   Clear
9:35 AM 77.0 °F 21.2 °F 12% 29.89 in 10.0 mi SW 3.5 mph - N/A   Clear
9:55 AM 78.8 °F 21.2 °F 12% 29.89 in 10.0 mi SW 3.5 mph - N/A   Clear
10:15 AM 82.4 °F 23.0 °F 11% 29.88 in 10.0 mi SW 8.1 mph - N/A   Clear
10:35 AM 84.2 °F 21.2 °F 10% 29.87 in 10.0 mi SSW 10.4 mph - N/A   Clear
10:55 AM 84.2 °F 21.2 °F 10% 29.87 in 10.0 mi SW 9.2 mph - N/A   Clear
11:15 AM 86.0 °F 21.2 °F 9% 29.86 in 10.0 mi SW 6.9 mph - N/A   Clear
11:35 AM 86.0 °F 21.2 °F 9% 29.85 in 10.0 mi SW 10.4 mph - N/A   Clear
11:55 AM 89.6 °F 21.2 °F 8% 29.84 in 10.0 mi SSW 9.2 mph - N/A   Clear
12:15 PM 89.6 °F 23.0 °F 9% 29.83 in 10.0 mi SW 6.9 mph - N/A   Clear
12:35 PM 89.6 °F 23.0 °F 9% 29.82 in 10.0 mi SSW 6.9 mph 17.3 mph N/A   Clear
12:55 PM 91.4 °F 23.0 °F 8% 29.80 in 10.0 mi SSW 8.1 mph - N/A   Clear
1:15 PM 93.2 °F 23.0 °F 8% 29.79 in 10.0 mi South 16.1 mph 19.6 mph N/A   Clear
1:35 PM 93.2 °F 23.0 °F 8% 29.78 in 10.0 mi SSW 13.8 mph 20.7 mph N/A   Clear
1:55 PM 91.4 °F 23.0 °F 8% 29.77 in 10.0 mi South 16.1 mph 23.0 mph N/A   Clear
2:15 PM 93.2 °F 23.0 °F 8% 29.76 in 10.0 mi SSE 9.2 mph 21.9 mph N/A   Clear
2:35 PM 93.2 °F 23.0 °F 8% 29.74 in 10.0 mi WSW 9.2 mph 16.1 mph N/A   Clear
2:55 PM 93.2 °F 23.0 °F 8% 29.73 in 10.0 mi South 15.0 mph - N/A   Clear
3:15 PM 95.0 °F 21.2 °F 7% 29.71 in 10.0 mi South 17.3 mph 21.9 mph N/A   Clear
3:35 PM 95.0 °F 23.0 °F 8% 29.70 in 10.0 mi South 16.1 mph 20.7 mph N/A   Clear
3:55 PM 95.0 °F 21.2 °F 7% 29.69 in 10.0 mi SSW 8.1 mph 20.7 mph N/A   Clear
4:15 PM 95.0 °F 21.2 °F 7% 29.68 in 10.0 mi South 15.0 mph 26.5 mph N/A   Clear
4:35 PM 95.0 °F 19.4 °F 6% 29.67 in 10.0 mi South 18.4 mph 24.2 mph N/A   Clear
4:55 PM 95.0 °F 17.6 °F 6% 29.67 in 10.0 mi South 13.8 mph 18.4 mph N/A   Clear
5:15 PM 95.0 °F 19.4 °F 6% 29.66 in 10.0 mi SSW 13.8 mph 19.6 mph N/A   Clear
5:35 PM 95.0 °F 19.4 °F 6% 29.66 in 10.0 mi South 17.3 mph - N/A   Clear
5:55 PM 93.2 °F 19.4 °F 7% 29.65 in 10.0 mi South 12.7 mph 24.2 mph N/A   Clear
6:15 PM 93.2 °F 19.4 °F 7% 29.65 in 10.0 mi South 18.4 mph - N/A   Clear
6:35 PM 93.2 °F 19.4 °F 7% 29.64 in 10.0 mi South 19.6 mph - N/A   Clear
6:55 PM 93.2 °F 17.6 °F 6% 29.64 in 10.0 mi SSE 13.8 mph 20.7 mph N/A   Clear
7:15 PM 91.4 °F 19.4 °F 7% 29.64 in 10.0 mi SSE 15.0 mph - N/A   Clear
7:35 PM 91.4 °F 19.4 °F 7% 29.64 in 10.0 mi SSE 15.0 mph - N/A   Clear
7:55 PM 91.4 °F 19.4 °F 7% 29.65 in 10.0 mi SSE 15.0 mph - N/A   Clear
8:15 PM 89.6 °F 23.0 °F 9% 29.66 in 10.0 mi SSE 17.3 mph 23.0 mph N/A   Clear
8:35 PM 89.6 °F 24.8 °F 10% 29.67 in 10.0 mi SSE 17.3 mph - N/A   Clear
8:55 PM 87.8 °F 24.8 °F 10% 29.67 in 10.0 mi SSE 16.1 mph - N/A   Clear
9:15 PM 87.8 °F 24.8 °F 10% 29.67 in 10.0 mi SE 18.4 mph - N/A   Clear
9:35 PM 86.0 °F 24.8 °F 11% 29.67 in 10.0 mi SE 19.6 mph - N/A   Clear
9:55 PM 86.0 °F 24.8 °F 11% 29.68 in 10.0 mi SE 13.8 mph - N/A   Clear
10:15 PM 82.4 °F 26.6 °F 13% 29.69 in 10.0 mi SW 4.6 mph - N/A   Clear
10:35 PM 80.6 °F 26.6 °F 14% 29.70 in 10.0 mi Calm Calm - N/A   Clear
10:55 PM 78.8 °F 26.6 °F 15% 29.69 in 10.0 mi East 3.5 mph - N/A   Clear
11:15 PM 77.0 °F 26.6 °F 16% 29.70 in 10.0 mi South 5.8 mph - N/A   Clear
11:35 PM 78.8 °F 26.6 °F 15% 29.70 in 10.0 mi South 6.9 mph - N/A   Clear
11:55 PM 77.0 °F 26.6 °F 16% 29.69 in 10.0 mi SE 8.1 mph - N/A   Clear